createdAt,value
2019-04-11T00:00:43.755Z,96868.45
2019-04-11T00:03:13.768Z,96873.41
2019-04-11T00:05:43.352Z,96873.99
2019-04-11T00:08:12.747Z,96871.20
2019-04-11T00:10:42.383Z,96873.55
2019-04-11T00:13:21.123Z,96869.69
2019-04-11T00:15:42.981Z,96867.98
2019-04-11T00:18:12.413Z,96875.05
2019-04-11T00:20:42.394Z,96866.52
2019-04-11T00:23:12.275Z,96868.87
2019-04-11T00:25:42.111Z,96864.81
2019-04-11T00:28:11.563Z,96863.64
2019-04-11T00:30:42.164Z,96867.33
2019-04-11T00:33:11.603Z,96853.55
2019-04-11T00:35:41.945Z,96851.88
2019-04-11T00:38:11.830Z,96849.33
2019-04-11T00:40:41.632Z,96857.58
2019-04-11T00:43:11.480Z,96865.91
2019-04-11T00:45:40.875Z,96870.58
2019-04-11T00:48:11.267Z,96869.57
2019-04-11T00:50:40.750Z,96866.33
2019-04-11T00:53:10.135Z,96872.20
2019-04-11T00:55:39.823Z,96872.86
2019-04-11T00:58:09.668Z,96880.47
2019-04-11T01:00:40.859Z,96882.45
2019-04-11T01:03:10.290Z,96876.89
2019-04-11T01:05:39.825Z,96884.18
2019-04-11T01:08:09.280Z,96880.12
2019-04-11T01:10:39.353Z,96874.73
2019-04-11T01:13:09.212Z,96870.35
2019-04-11T01:15:40.806Z,96872.02
2019-04-11T01:18:11.891Z,96876.20
2019-04-11T01:20:41.906Z,96866.98
2019-04-11T01:23:11.269Z,96856.90
2019-04-11T01:25:41.034Z,96853.52
2019-04-11T01:28:12.206Z,96853.52
2019-04-11T01:31:01.680Z,96850.68
2019-04-11T01:33:31.762Z,96851.53
2019-04-11T01:36:01.220Z,96861.28
2019-04-11T01:38:32.505Z,96859.59
2019-04-11T01:41:02.456Z,96859.41
2019-04-11T01:43:32.928Z,96861.29
2019-04-11T01:46:02.744Z,96859.59
2019-04-11T01:48:46.037Z,96857.90
2019-04-11T01:51:15.789Z,96851.19
2019-04-11T01:53:46.901Z,96852.71
2019-04-11T01:56:16.898Z,96843.74
2019-04-11T01:58:46.868Z,96845.30
2019-04-11T02:01:18.845Z,96844.79
2019-04-11T02:03:49.765Z,96838.40
2019-04-11T02:06:19.521Z,96847.64
2019-04-11T02:08:49.325Z,96842.11
2019-04-11T02:11:18.798Z,96846.13
2019-04-11T02:13:48.465Z,96845.13
2019-04-11T02:16:18.944Z,96847.83
2019-04-11T02:18:49.861Z,96845.30
2019-04-11T02:21:19.882Z,96852.87
2019-04-11T02:24:03.911Z,96850.33
2019-04-11T02:26:35.627Z,96849.17
2019-04-11T02:29:05.536Z,96854.23
2019-04-11T02:31:36.787Z,96851.35
2019-04-11T02:34:08.380Z,96852.02
2019-04-11T02:36:38.402Z,96846.17
2019-04-11T02:39:16.703Z,96849.83
2019-04-11T02:41:42.175Z,96852.52
2019-04-11T02:44:29.158Z,96856.57
2019-04-11T02:46:51.648Z,96856.22
2019-04-11T02:49:14.958Z,96859.27
2019-04-11T02:51:45.060Z,96857.23
2019-04-11T02:54:15.975Z,96856.57
2019-04-11T02:56:48.742Z,96857.59
2019-04-11T02:59:19.630Z,96853.86
2019-04-11T03:01:50.732Z,96851.84
2019-04-11T03:04:22.789Z,96854.81
2019-04-11T03:06:52.068Z,96850.84
2019-04-11T03:09:24.095Z,96849.30
2019-04-11T03:11:54.715Z,96852.17
2019-04-11T03:14:25.134Z,96853.87
2019-04-11T03:17:04.948Z,96855.39
2019-04-11T03:19:42.756Z,96859.58
2019-04-11T03:21:58.913Z,96866.94
2019-04-11T03:24:29.443Z,96857.73
2019-04-11T03:27:02.780Z,96873.19
2019-04-11T03:29:33.111Z,96870.91
2019-04-11T03:32:37.190Z,96870.53
2019-04-11T03:37:26.130Z,96867.16
2019-04-11T03:39:57.023Z,96869.26
2019-04-11T03:42:21.947Z,96860.93
2019-04-11T03:44:47.139Z,96871.62
2019-04-11T03:47:31.093Z,96864.20
2019-04-11T03:49:50.979Z,96865.91
2019-04-11T03:52:17.065Z,96868.28
2019-04-11T03:54:47.515Z,96863.58
2019-04-11T03:57:18.017Z,96873.45
2019-04-11T03:59:47.966Z,96875.00
2019-04-11T04:02:22.483Z,96870.35
2019-04-11T04:04:53.954Z,96870.35
2019-04-11T04:07:24.257Z,96878.09
2019-04-11T04:09:54.569Z,96882.72
2019-04-11T04:12:24.564Z,96896.28
2019-04-11T04:14:55.801Z,96893.84
2019-04-11T04:17:45.562Z,96899.25
2019-04-11T04:20:26.970Z,96905.06
2019-04-11T04:22:58.554Z,96904.88
2019-04-11T04:25:28.622Z,96911.86
2019-04-11T04:27:58.985Z,96921.38
2019-04-11T04:30:29.831Z,96923.02
2019-04-11T04:33:00.576Z,96918.62
2019-04-11T04:35:31.700Z,96918.47
2019-04-11T04:38:03.039Z,96923.73
2019-04-11T04:40:49.804Z,96927.72
2019-04-11T04:43:07.464Z,96932.66
2019-04-11T04:45:55.004Z,96933.42
2019-04-11T04:48:11.444Z,96931.50
2019-04-11T04:50:39.213Z,96938.86
2019-04-11T04:53:09.912Z,96940.83
2019-04-11T04:55:39.261Z,96941.42
2019-04-11T04:58:09.141Z,96946.04
2019-04-11T05:00:39.652Z,96950.22
2019-04-11T05:03:10.509Z,96953.70
2019-04-11T05:05:39.904Z,96960.33
2019-04-11T05:08:10.761Z,96957.69
2019-04-11T05:10:41.306Z,96965.04
2019-04-11T05:13:11.926Z,96965.20
2019-04-11T05:15:43.443Z,96973.89
2019-04-11T05:18:15.601Z,96977.73
2019-04-11T05:20:44.270Z,96974.20
2019-04-11T05:23:14.059Z,96973.89
2019-04-11T05:25:44.593Z,96975.75
2019-04-11T05:28:14.069Z,96971.84
2019-04-11T05:30:43.475Z,96969.25
2019-04-11T05:33:13.604Z,96979.74
2019-04-11T05:35:43.776Z,96982.86
2019-04-11T05:38:13.533Z,96977.40
2019-04-11T05:40:42.992Z,96980.86
2019-04-11T05:43:13.529Z,96979.86
2019-04-11T05:45:43.010Z,96987.23
2019-04-11T05:48:30.589Z,96990.87
2019-04-11T05:51:00.549Z,96989.14
2019-04-11T05:53:32.842Z,96991.88
2019-04-11T05:56:03.653Z,96997.20
2019-04-11T05:58:34.782Z,96992.96
2019-04-11T06:01:11.024Z,97003.72
2019-04-11T06:03:43.254Z,97004.98
2019-04-11T06:06:16.370Z,97007.40
2019-04-11T06:08:46.240Z,97006.04
2019-04-11T06:11:24.189Z,97009.04
2019-04-11T06:13:56.515Z,97011.42
2019-04-11T06:16:36.099Z,97013.77
2019-04-11T06:19:01.347Z,97022.33
2019-04-11T06:21:33.612Z,97023.16
2019-04-11T06:24:21.073Z,97026.70
2019-04-11T06:27:04.154Z,97023.39
2019-04-11T06:29:51.353Z,97024.70
2019-04-11T06:32:23.492Z,97027.09
2019-04-11T06:35:11.553Z,97028.09
2019-04-11T06:38:00.728Z,97030.16
2019-04-11T06:40:37.700Z,97037.28
2019-04-11T06:43:25.743Z,97035.42
2019-04-11T06:46:13.154Z,97034.89
2019-04-11T06:52:08.556Z,97042.80
2019-04-11T06:54:49.544Z,97033.33
2019-04-11T06:57:26.323Z,97038.22
2019-04-11T06:59:56.661Z,97032.97
2019-04-11T07:02:27.984Z,97040.09
2019-04-11T07:05:00.204Z,97045.80
2019-04-11T07:07:32.268Z,97040.86
2019-04-11T07:10:06.302Z,97050.14
2019-04-11T07:12:38.513Z,97054.77
2019-04-11T07:15:19.527Z,97054.88
2019-04-11T07:18:07.615Z,97047.68
2019-04-11T07:20:54.215Z,97057.61
2019-04-11T07:23:44.220Z,97058.37
2019-04-11T07:26:25.122Z,97059.89
2019-04-11T07:28:56.607Z,97059.63
2019-04-11T07:31:41.012Z,97064.73
2019-04-11T07:34:32.783Z,97062.23
2019-04-11T07:37:17.610Z,97066.36
2019-04-11T07:40:00.855Z,97069.02
2019-04-11T07:42:49.718Z,97075.41
2019-04-11T07:45:23.018Z,97079.70
2019-04-11T07:47:55.222Z,97086.06
2019-04-11T07:50:26.094Z,97083.08
2019-04-11T07:53:03.308Z,97084.20
2019-04-11T07:55:32.690Z,97087.86
2019-04-11T07:58:04.340Z,97085.81
2019-04-11T08:00:48.896Z,97089.80
2019-04-11T08:03:23.480Z,97097.08
2019-04-11T08:06:09.482Z,97086.70
2019-04-11T08:08:56.480Z,97094.89
2019-04-11T08:11:31.658Z,97100.78
2019-04-11T08:14:08.523Z,97100.59
2019-04-11T08:16:39.545Z,97100.88
2019-04-11T08:19:15.291Z,97103.63
2019-04-11T08:22:03.902Z,97107.41
2019-04-11T08:24:34.933Z,97104.24
2019-04-11T08:27:06.969Z,97108.30
2019-04-11T08:29:38.207Z,97109.95
2019-04-11T08:32:26.069Z,97111.53
2019-04-11T08:35:13.074Z,97115.50
2019-04-11T08:37:50.110Z,97115.61
2019-04-11T08:40:21.862Z,97117.33
2019-04-11T08:43:08.939Z,97122.98
2019-04-11T08:45:40.352Z,97127.84
2019-04-11T08:48:11.476Z,97133.45
2019-04-11T08:50:45.228Z,97137.14
2019-04-11T08:53:18.884Z,97137.42
2019-04-11T08:55:58.864Z,97138.77
2019-04-11T08:58:38.478Z,97144.17
2019-04-11T09:01:09.695Z,97140.00
2019-04-11T09:03:42.007Z,97146.22
2019-04-11T09:06:12.599Z,97146.22
2019-04-11T09:08:59.739Z,97151.59
2019-04-11T09:11:36.647Z,97152.23
2019-04-11T09:14:15.822Z,97161.02
2019-04-11T09:16:47.906Z,97160.28
2019-04-11T09:19:19.001Z,97156.95
2019-04-11T09:22:06.804Z,97163.52
2019-04-11T09:24:43.865Z,97165.44
2019-04-11T09:27:31.334Z,97165.72
2019-04-11T09:30:19.036Z,97172.11
2019-04-11T09:32:50.734Z,97164.44
2019-04-11T09:35:38.024Z,97168.70
2019-04-11T09:38:12.051Z,97170.77
2019-04-11T09:40:50.145Z,97171.30
2019-04-11T09:43:22.132Z,97173.85
2019-04-11T09:46:10.276Z,97177.73
2019-04-11T09:48:56.579Z,97185.66
2019-04-11T09:51:30.296Z,97185.02
2019-04-11T09:54:13.372Z,97186.89
2019-04-11T09:57:00.544Z,97189.19
2019-04-11T09:59:43.819Z,97187.34
2019-04-11T10:02:18.805Z,97191.89
2019-04-11T10:04:50.240Z,97190.18
2019-04-11T10:07:28.272Z,97182.33
2019-04-11T10:10:04.800Z,97187.08
2019-04-11T10:18:50.053Z,97196.84
2019-04-11T10:21:21.268Z,97195.63
2019-04-11T10:24:09.438Z,97193.23
2019-04-11T10:29:58.984Z,97199.59
2019-04-11T10:32:32.995Z,97200.25
2019-04-11T10:35:14.261Z,97202.95
2019-04-11T10:37:45.693Z,97206.70
2019-04-11T10:40:21.211Z,97208.05
2019-04-11T10:42:51.793Z,97207.69
2019-04-11T10:45:23.181Z,97209.00
2019-04-11T10:47:54.332Z,97212.67
2019-04-11T10:50:42.374Z,97212.83
2019-04-11T10:53:13.024Z,97212.04
2019-04-11T10:56:00.048Z,97222.72
2019-04-11T10:58:31.111Z,97226.47
2019-04-11T11:01:05.053Z,97227.55
2019-04-11T11:03:43.049Z,97232.89
2019-04-11T11:06:15.570Z,97239.23
2019-04-11T11:08:53.406Z,97232.17
2019-04-11T11:11:26.834Z,97235.91
2019-04-11T11:14:10.251Z,97244.91
2019-04-11T11:16:54.782Z,97244.19
2019-04-11T11:19:57.188Z,97237.69
2019-04-11T11:22:17.403Z,97249.99
2019-04-11T11:24:52.453Z,97253.50
2019-04-11T11:27:24.398Z,97254.55
2019-04-11T11:29:56.197Z,97262.39
2019-04-11T11:32:25.278Z,97249.94
2019-04-11T11:34:56.925Z,97254.77
2019-04-11T11:37:35.326Z,97259.02
2019-04-11T11:40:26.157Z,97258.39
2019-04-11T11:43:12.157Z,97262.55
2019-04-11T11:45:49.150Z,97263.07
2019-04-11T11:48:27.963Z,97266.06
2019-04-11T11:50:59.194Z,97265.43
2019-04-11T11:53:31.305Z,97257.83
2019-04-11T11:56:02.401Z,97266.41
2019-04-11T11:58:43.543Z,97266.44
2019-04-11T12:01:15.695Z,97261.61
2019-04-11T12:03:47.043Z,97265.16
2019-04-11T12:06:22.324Z,97270.45
2019-04-11T12:08:50.941Z,97259.19
2019-04-11T12:11:22.189Z,97262.20
2019-04-11T12:14:09.499Z,97270.47
2019-04-11T12:16:59.631Z,97281.71
2019-04-11T12:19:28.994Z,97275.52
2019-04-11T12:22:00.419Z,97274.89
2019-04-11T12:24:40.614Z,97273.41
2019-04-11T12:27:14.451Z,97276.17
2019-04-11T12:30:05.890Z,97279.31
2019-04-11T12:32:36.798Z,97287.71
2019-04-11T12:35:09.230Z,97276.53
2019-04-11T12:37:56.353Z,97280.09
2019-04-11T12:40:43.462Z,97278.48
2019-04-11T12:43:13.615Z,97280.67
2019-04-11T12:45:47.098Z,97282.13
2019-04-11T12:48:17.041Z,97281.39
2019-04-11T12:51:01.032Z,97283.00
2019-04-11T12:53:30.423Z,97286.94
2019-04-11T12:56:17.596Z,97295.07
2019-04-11T12:58:48.624Z,97299.48
2019-04-11T13:01:26.049Z,97290.04
2019-04-11T13:04:03.322Z,97291.91
2019-04-11T13:06:40.812Z,97293.47
2019-04-11T13:09:12.246Z,97298.28
2019-04-11T13:11:43.266Z,97295.52
2019-04-11T13:14:14.376Z,97293.20
2019-04-11T13:16:45.405Z,97293.83
2019-04-11T13:19:32.820Z,97297.05
2019-04-11T13:22:03.925Z,97293.87
2019-04-11T13:24:47.028Z,97303.02
2019-04-11T13:27:18.134Z,97303.09
2019-04-11T13:30:05.389Z,97305.00
2019-04-11T13:32:43.446Z,97308.44
2019-04-11T13:35:31.300Z,97313.77
2019-04-11T13:38:05.238Z,97311.13
2019-04-11T13:40:39.125Z,97311.80
2019-04-11T13:43:16.150Z,97303.72
2019-04-11T13:48:47.292Z,97304.25
2019-04-11T13:51:24.384Z,97308.23
2019-04-11T13:54:13.538Z,97315.00
2019-04-11T13:57:00.975Z,97312.29
2019-04-11T13:59:34.439Z,97309.87
2019-04-11T14:02:07.657Z,97309.92
2019-04-11T14:04:54.952Z,97307.33
2019-04-11T14:07:26.865Z,97299.73
2019-04-11T14:09:59.078Z,97298.26
2019-04-11T14:12:33.475Z,97304.14
2019-04-11T14:15:07.010Z,97298.34
2019-04-11T14:20:29.830Z,97300.91
2019-04-11T14:22:58.585Z,97297.02
2019-04-11T14:25:46.077Z,97301.48
2019-04-11T14:28:19.771Z,97299.98
2019-04-11T14:30:52.527Z,97315.34
2019-04-11T14:33:24.256Z,97305.71
2019-04-11T14:38:52.282Z,97312.86
2019-04-11T14:41:26.518Z,97310.77
2019-04-11T14:44:00.234Z,97309.22
2019-04-11T14:46:47.586Z,97307.20
2019-04-11T14:49:16.969Z,97306.73
2019-04-11T14:52:03.133Z,97310.30
2019-04-11T14:54:43.130Z,97307.61
2019-04-11T15:00:24.231Z,97309.03
2019-04-11T15:05:59.992Z,97312.48
2019-04-11T15:08:33.847Z,97308.36
2019-04-11T15:11:21.443Z,97312.48
2019-04-11T15:13:53.539Z,97306.48
2019-04-11T15:16:40.697Z,97302.94
2019-04-11T15:19:10.083Z,97299.73
2019-04-11T15:21:41.110Z,97298.30
2019-04-11T15:24:11.154Z,97307.83
2019-04-11T15:26:48.126Z,97305.30
2019-04-11T15:29:19.082Z,97298.60
2019-04-11T15:31:50.102Z,97298.24
2019-04-11T15:34:36.182Z,97293.52
2019-04-11T15:37:15.989Z,97294.81
2019-04-11T15:39:59.112Z,97298.78
2019-04-11T15:42:48.166Z,97297.23
2019-04-11T15:45:28.204Z,97303.16
2019-04-11T15:48:17.798Z,97297.05
2019-04-11T15:51:06.465Z,97297.36
2019-04-11T15:53:37.568Z,97300.33
2019-04-11T15:56:25.250Z,97310.50
2019-04-11T15:59:07.977Z,97310.37
2019-04-11T16:01:51.294Z,97302.73
2019-04-11T16:04:31.055Z,97312.62
2019-04-11T16:07:12.190Z,97311.07
2019-04-11T16:09:44.088Z,97303.73
2019-04-11T16:12:30.379Z,97310.70
2019-04-11T16:15:17.925Z,97311.91
2019-04-11T16:18:02.008Z,97315.33
2019-04-11T16:20:31.384Z,97319.04
2019-04-11T16:23:18.439Z,97314.56
2019-04-11T16:25:49.455Z,97314.52
2019-04-11T16:28:20.557Z,97307.27
2019-04-11T16:30:54.526Z,97313.98
2019-04-11T16:33:34.715Z,97307.28
2019-04-11T16:36:14.946Z,97311.08
2019-04-11T16:38:51.650Z,97303.87
2019-04-11T16:41:38.793Z,97306.41
2019-04-11T16:44:18.281Z,97305.43
2019-04-11T16:47:04.520Z,97307.19
2019-04-11T16:49:33.931Z,97319.43
2019-04-11T16:52:07.368Z,97312.81
2019-04-11T16:54:34.425Z,97318.73
2019-04-11T16:57:03.778Z,97319.73
2019-04-11T16:59:35.243Z,97323.17
2019-04-11T17:02:09.924Z,97320.50
2019-04-11T17:04:39.432Z,97320.80
2019-04-11T17:07:13.179Z,97317.69
2019-04-11T17:09:44.778Z,97317.56
2019-04-11T17:12:14.174Z,97316.33
2019-04-11T17:14:43.625Z,97316.83
2019-04-11T17:17:15.145Z,97320.63
2019-04-11T17:19:45.016Z,97308.87
2019-04-11T17:22:16.852Z,97322.66
2019-04-11T17:24:47.811Z,97314.44
2019-04-11T17:27:16.728Z,97325.69
2019-04-11T17:29:46.145Z,97320.38
2019-04-11T17:32:15.524Z,97326.98
2019-04-11T17:34:45.620Z,97332.61
2019-04-11T17:37:15.897Z,97339.27
2019-04-11T17:39:46.131Z,97347.70
2019-04-11T17:42:16.571Z,97351.26
2019-04-11T17:44:46.683Z,97344.92
2019-04-11T17:47:16.874Z,97348.62
2019-04-11T17:49:47.173Z,97346.92
2019-04-11T17:52:17.535Z,97356.83
2019-04-11T17:54:47.666Z,97357.18
2019-04-11T17:57:18.317Z,97359.14
2019-04-11T17:59:48.808Z,97356.48
2019-04-11T18:02:19.273Z,97366.05
2019-04-11T18:04:48.675Z,97364.77
2019-04-11T18:07:19.022Z,97363.14
2019-04-11T18:09:51.203Z,97367.98
2019-04-11T18:12:20.591Z,97365.97
2019-04-11T18:14:49.981Z,97370.17
2019-04-11T18:17:20.399Z,97375.99
2019-04-11T18:19:50.521Z,97376.16
2019-04-11T18:22:20.724Z,97385.74
2019-04-11T18:24:50.955Z,97387.80
2019-04-11T18:27:21.865Z,97386.08
2019-04-11T18:29:52.965Z,97393.47
2019-04-11T18:32:24.921Z,97399.70
2019-04-11T18:34:54.299Z,97397.22
2019-04-11T18:37:23.681Z,97403.31
2019-04-11T18:39:53.087Z,97400.72
2019-04-11T18:42:22.727Z,97403.42
2019-04-11T18:44:52.962Z,97403.86
2019-04-11T18:47:23.506Z,97410.37
2019-04-11T18:49:55.441Z,97412.30
2019-04-11T18:52:26.515Z,97412.19
2019-04-11T18:54:56.911Z,97416.27
2019-04-11T18:57:26.639Z,97418.05
2019-04-11T18:59:56.015Z,97409.20
2019-04-11T19:02:26.573Z,97422.17
2019-04-11T19:04:56.877Z,97418.09
2019-04-11T19:07:27.947Z,97422.31
2019-04-11T19:09:57.407Z,97425.52
2019-04-11T19:12:26.811Z,97428.12
2019-04-11T19:14:56.212Z,97429.69
2019-04-11T19:17:26.260Z,97435.31
2019-04-11T19:20:02.016Z,97439.30
2019-04-11T19:22:37.583Z,97433.63
2019-04-11T19:25:11.818Z,97433.18
2019-04-11T19:27:39.479Z,97439.34
2019-04-11T19:30:18.952Z,97441.97
2019-04-11T19:32:52.949Z,97435.76
2019-04-11T19:35:23.928Z,97443.36
2019-04-11T19:37:53.501Z,97434.83
2019-04-11T19:40:22.899Z,97435.46
2019-04-11T19:42:52.288Z,97439.13
2019-04-11T19:45:21.674Z,97431.52
2019-04-11T19:47:58.128Z,97436.88
2019-04-11T19:50:29.194Z,97427.21
2019-04-11T19:53:02.648Z,97428.39
2019-04-11T19:55:48.030Z,97432.91
2019-04-11T19:58:19.609Z,97434.88
2019-04-11T20:00:52.892Z,97436.66
2019-04-11T20:03:21.835Z,97436.98
2019-04-11T20:05:51.325Z,97435.02
2019-04-11T20:08:20.714Z,97439.58
2019-04-11T20:10:50.109Z,97446.23
2019-04-11T20:13:19.554Z,97449.95
2019-04-11T20:15:50.534Z,97447.75
2019-04-11T20:18:22.699Z,97451.51
2019-04-11T20:20:52.294Z,97448.20
2019-04-11T20:23:21.691Z,97451.36
2019-04-11T20:25:51.089Z,97453.97
2019-04-11T20:28:20.883Z,97455.80
2019-04-11T20:30:53.415Z,97459.19
2019-04-11T20:33:27.356Z,97454.81
2019-04-11T20:35:53.885Z,97451.52
2019-04-11T20:38:23.286Z,97456.75
2019-04-11T20:40:53.274Z,97453.39
2019-04-11T20:43:25.415Z,97461.75
2019-04-11T20:45:54.170Z,97453.90
2019-04-11T20:48:23.523Z,97451.42
2019-04-11T20:50:52.907Z,97448.43
2019-04-11T20:53:22.297Z,97450.48
2019-04-11T20:55:51.831Z,97443.66
2019-04-11T20:58:27.336Z,97446.19
2019-04-11T21:00:55.648Z,97441.40
2019-04-11T21:03:24.302Z,97433.22
2019-04-11T21:05:53.690Z,97431.97
2019-04-11T21:08:24.143Z,97437.16
2019-04-11T21:10:53.531Z,97445.64
2019-04-11T21:13:22.920Z,97448.88
2019-04-11T21:15:52.300Z,97456.39
2019-04-11T21:18:25.659Z,97456.21
2019-04-11T21:20:55.251Z,97454.94
2019-04-11T21:23:24.928Z,97453.38
2019-04-11T21:25:58.864Z,97459.70
2019-04-11T21:28:27.893Z,97464.06
2019-04-11T21:31:00.138Z,97457.63
2019-04-11T21:33:29.221Z,97456.30
2019-04-11T21:36:01.332Z,97461.30
2019-04-11T21:38:30.883Z,97453.75
2019-04-11T21:41:00.882Z,97453.96
2019-04-11T21:43:31.224Z,97448.43
2019-04-11T21:46:00.625Z,97449.88
2019-04-11T21:48:30.017Z,97451.85
2019-04-11T21:50:59.412Z,97444.19
2019-04-11T21:53:36.663Z,97454.53
2019-04-11T21:56:02.297Z,97450.16
2019-04-11T21:58:31.686Z,97446.34
2019-04-11T22:01:04.328Z,97452.62
2019-04-11T22:03:33.843Z,97448.25
2019-04-11T22:06:03.445Z,97448.02
2019-04-11T22:08:34.459Z,97450.29
2019-04-11T22:11:04.863Z,97449.58
2019-04-11T22:13:34.426Z,97449.09
2019-04-11T22:16:03.875Z,97459.20
2019-04-11T22:18:33.265Z,97454.82
2019-04-11T22:21:02.648Z,97465.95
2019-04-11T22:23:32.298Z,97462.39
2019-04-11T22:26:01.676Z,97471.53
2019-04-11T22:28:31.067Z,97464.84
2019-04-11T22:31:00.456Z,97461.85
2019-04-11T22:33:34.596Z,97460.09
2019-04-11T22:36:04.152Z,97463.72
2019-04-11T22:38:33.556Z,97462.87
2019-04-11T22:41:02.947Z,97459.53
2019-04-11T22:43:32.682Z,97457.31
2019-04-11T22:46:03.130Z,97456.22
2019-04-11T22:48:32.507Z,97448.37
2019-04-11T22:51:01.902Z,97450.89
2019-04-11T22:53:31.285Z,97447.05
2019-04-11T22:56:01.599Z,97450.50
2019-04-11T22:58:30.983Z,97445.98
2019-04-11T23:01:00.367Z,97447.91
2019-04-11T23:03:37.112Z,97442.80
2019-04-11T23:06:06.490Z,97446.78
2019-04-11T23:08:35.923Z,97449.72
2019-04-11T23:11:07.293Z,97459.34
2019-04-11T23:13:36.754Z,97454.33
2019-04-11T23:16:06.135Z,97455.31
2019-04-11T23:18:35.835Z,97459.41
2019-04-11T23:21:05.218Z,97461.31
2019-04-11T23:23:34.676Z,97460.45
2019-04-11T23:26:04.473Z,97459.11
2019-04-11T23:28:33.871Z,97454.93
2019-04-11T23:31:03.265Z,97456.00
2019-04-11T23:33:32.660Z,97453.69
2019-04-11T23:36:02.054Z,97460.50
2019-04-11T23:38:31.446Z,97463.72
2019-04-11T23:41:01.815Z,97458.91
2019-04-11T23:43:31.195Z,97452.97
2019-04-11T23:46:00.591Z,97449.78
2019-04-11T23:48:29.974Z,97457.50
2019-04-11T23:50:59.632Z,97452.55
2019-04-11T23:53:29.663Z,97449.37
2019-04-11T23:56:00.723Z,97445.82
2019-04-11T23:58:32.072Z,97447.25
